• Join FlightAware (Why Join?)
  • Login
  • US Flag 
03:35AM EDT


 

Airport Tracker/Info


-or-


 

Live Flight TrackerFlight Track Log ✈ DAL268 ✈ 14-Oct-2013 ✈ KJFK - LLBG / TLV

Flight Track Log - Related Links

Times and Time Zones

All times are in EDT time to prevent confusion due to time zone crossing. See the DAL268 flight status page for this flight to view local times or setup timezone preferences in your user account.

Time Position Orientation Groundspeed Altitude Reporting Facility
EDT Latitude Longitude Course Direction KTS MPH feet Rate Location/Type
09:40PM 40.6370 -73.7920 14° North 165 190  Level FlightAware
09:40PM 40.6270 -73.7710 122° Southeast 176 203 200 1,020 Climbing FlightAware
09:40PM 40.6210 -73.7610 128° Southeast 176 203 600 1,740 Climbing FlightAware
09:41PM 40.6130 -73.7530 143° Southeast 181 208 900 1,020 Climbing FlightAware
09:41PM 40.5970 -73.7380 145° Southeast 201 231 1,200 660 Climbing FlightAware
09:41PM 40.5810 -73.7220 143° Southeast 229 264 1,400 840 Climbing FlightAware
09:42PM 40.5610 -73.7040 146° Southeast 243 280 1,800 900 Climbing FlightAware
09:42PM 40.5410 -73.6850 144° Southeast 262 302 2,100 780 Climbing FlightAware
09:42PM 40.5240 -73.6690 144° Southeast 278 320 2,300 1,560 Climbing FlightAware
09:43PM 40.4990 -73.6380 137° Southeast 285 328 3,200 2,100 Climbing FlightAware
09:43PM 40.4930 -73.6250 121° Southeast 287 330 3,500 1,860 Climbing FlightAware
09:43PM 40.4890 -73.6130 114° Southeast 288 331 3,700 1,800 Climbing FlightAware
09:43PM 40.4860 -73.5920 101° East 289 333 4,100 2,100 Climbing FlightAware
09:44PM 40.4970 -73.5460 73° East 289 333 5,100 2,220 Climbing FlightAware
09:44PM 40.5120 -73.5160 57° Northeast 292 336 5,900 2,400 Climbing FlightAware
09:44PM 40.5270 -73.4850 58° Northeast 295 339 6,700 2,100 Climbing FlightAware
09:45PM 40.5320 -73.4720 63° Northeast 300 345 6,900 1,740 Climbing FlightAware
09:45PM 40.5350 -73.4580 74° East 304 350 7,200 2,100 Climbing FlightAware
09:45PM 40.5370 -73.4430 80° East 306 352 7,500 2,100 Climbing FlightAware
09:45PM 40.5330 -73.4010 97° East 310 357 8,300 2,100 Climbing FlightAware
09:45PM 40.5279 -73.3849 113° Southeast 314 361 8,600 1,740 Climbing FlightAware ADS-B (KSNC)
09:46PM 40.4940 -73.2890 115° Southeast 330 380 10,200 1,560 Climbing FlightAware
09:47PM 40.4809 -73.2494 114° Southeast 338 389 10,600 960 Climbing FlightAware ADS-B (KSNC)
09:47PM 40.4584 -73.1839 114° Southeast 370 426 11,100 960 Climbing FlightAware ADS-B (KSNC)
09:48PM 40.4325 -73.1123 115° Southeast 396 456 11,700 1,500 Climbing FlightAware ADS-B (KSNC)
09:49PM 40.3920 -72.9970 115° Southeast 410 472 13,300 1,860 Climbing FlightAware
09:49PM 40.3740 -72.9463 115° Southeast 417 480 14,000 1,980 Climbing FlightAware ADS-B (KSNC)
09:49PM 40.3507 -72.8765 114° Southeast 422 486 15,000 1,920 Climbing FlightAware ADS-B (KSNC)
09:50PM 40.3206 -72.7892 114° Southeast 430 495 16,200 1,800 Climbing FlightAware ADS-B (KSNC)
09:51PM 40.2780 -72.6660 114° Southeast 443 510 17,700 1,680 Climbing FlightAware
09:52PM 40.2460 -72.5720 114° Southeast 452 520 18,700 1,560 Climbing FlightAware
09:52PM 40.2310 -72.5210 111° Southeast 453 521 19,200 1,500 Climbing FlightAware
09:52PM 40.2270 -72.4858 98° East 456 525 19,500 1,500 Climbing FlightAware ADS-B (KSNC)
09:53PM 40.2390 -72.3960 80° East 460 529 20,400 1,500 Climbing FlightAware
09:53PM 40.2670 -72.3080 67° East 466 536 21,200 1,260 Climbing FlightAware
09:54PM 40.2930 -72.2300 66° East 472 543 21,900 1,200 Climbing FlightAware
09:55PM 40.3370 -72.0960 67° East 484 557 22,900 1,320 Climbing FlightAware
09:55PM 40.3660 -72.0060 67° East 491 565 23,600 1,200 Climbing FlightAware
09:56PM 40.4000 -71.9020 67° East 497 572 24,300 1,140 Climbing FlightAware
09:56PM 40.4320 -71.8040 67° East 502 578 25,000 1,080 Climbing FlightAware
09:57PM 40.4600 -71.7160 67° East 502 578 25,600 480 Climbing FlightAware
09:57PM 40.4850 -71.6380 67° East 502 578 25,600 1,020 Level FlightAware
09:58PM 40.5250 -71.5120 67° East 520 598 26,800 1,440 Climbing FlightAware
09:59PM 40.5620 -71.3970 67° East 525 604 27,400 900 Climbing FlightAware
09:59PM 40.5930 -71.2970 68° East 529 609 27,900 1,080 Climbing FlightAware
10:00PM 40.6260 -71.1930 67° East 528 608 28,700 1,200 Climbing FlightAware
10:00PM 40.6610 -71.0800 68° East 527 606 29,400 1,080 Climbing FlightAware
10:01PM 40.6910 -70.9880 67° East 527 606 30,000 1,020 Climbing FlightAware
10:02PM 40.7230 -70.8840 68° East 528 608 30,600 840 Climbing FlightAware
10:02PM 40.7570 -70.7740 68° East 530 610 31,000 300 Climbing FlightAware
10:03PM 40.7860 -70.6810 68° East 531 611 31,000  Level FlightAware
10:03PM 40.8170 -70.5810 68° East 532 612 31,000  Level FlightAware
10:04PM 40.8500 -70.4730 68° East 533 613 31,000  Level FlightAware
10:05PM 40.9000 -70.3090 68° East 535 616 31,000  Level FlightAware
10:05PM 40.9290 -70.2160 68° East 535 616 31,000  Level FlightAware
10:06PM 40.9570 -70.1230 68° East 535 616 31,000  Level FlightAware
10:07PM 40.9850 -70.0300 68° East 535 616 31,000  Level FlightAware
10:07PM 41.0140 -69.9370 68° East 535 616 31,000  Level FlightAware
10:08PM 41.0420 -69.8440 68° East 535 616 31,000  Level FlightAware
10:08PM 41.0700 -69.7510 68° East 535 616 31,000  Level FlightAware
10:09PM 41.0990 -69.6580 67° East 535 616 31,000  Level FlightAware
10:10PM 41.1270 -69.5650 68° East 535 616 31,000  Level FlightAware
10:10PM 41.1560 -69.4710 68° East 535 616 31,000  Level FlightAware
10:11PM 41.1770 -69.4020 68° East 535 616 31,000  Level FlightAware
10:11PM 41.2100 -69.2930 68° East 535 616 31,000  Level FlightAware
10:12PM 41.2380 -69.1990 68° East 535 616 31,000  Level FlightAware
10:13PM 41.2670 -69.1060 67° East 535 616 31,000  Level FlightAware
10:13PM 41.3370 -68.7550 75° East 540 621 31,000  Level FlightAware
10:14PM 41.3710 -68.6300 70° East 540 621 31,000  Level FlightAware
10:14PM 41.3970 -68.5320 70° East 540 621 31,000  Level FlightAware
10:15PM 41.4153 -68.4573 72° East 539 620 31,000  Level FlightAware ADS-B (CYQI)
10:15PM 41.4405 -68.3603 71° East 539 620 31,000  Level FlightAware ADS-B (CYQI)
10:16PM 41.4510 -68.3350 61° Northeast 540 621 31,000  Level FlightAware
10:16PM 41.4807 -68.2041 73° East 536 617 31,000  Level FlightAware ADS-B (CYQI)
10:17PM 41.5040 -68.1400 64° Northeast 540 621 31,000  Level FlightAware
10:18PM 41.5310 -68.0420 70° East 540 621 31,000  Level FlightAware
10:18PM 41.5580 -67.9430 70° East 540 621 31,000  Level FlightAware
10:19PM 41.5860 -67.8420 70° East 540 621 31,000  Level FlightAware
10:19PM 41.6120 -67.7460 70° East 540 621 31,000  Level FlightAware
10:20PM 41.6380 -67.6500 70° East 540 621 31,000  Level FlightAware
10:21PM 41.6640 -67.5530 70° East 540 621 31,000  Level FlightAware
10:21PM 41.7039 -67.3232 77° East 535 616 31,000  Level FlightAware ADS-B (CYQI)
10:21PM 41.7279 -67.2257 72° East 536 617 31,000  Level FlightAware ADS-B (CYQI)
10:22PM 41.7584 -67.1028 72° East 537 618 31,000  Level FlightAware ADS-B (CYQI)
10:22PM 41.7791 -67.0177 72° East 538 619 31,000  Level FlightAware ADS-B (CYQI)
10:23PM 41.7700 -67.1630 265° West 540 621 31,000  Level FlightAware
10:23PM 41.8302 -66.8264 76° East 538 619 31,000  Level FlightAware ADS-B (CYQI)
10:24PM 41.8656 -66.7015 69° East 538 619 31,000  Level FlightAware ADS-B (CYQI)
10:25PM 41.9007 -66.5704 70° East 535 616 31,000  Level FlightAware ADS-B (CYQI)
10:25PM 41.9374 -66.4364 70° East 534 615 31,000  Level FlightAware ADS-B (CYQI)
10:26PM 41.9613 -66.3462 70° East 534 615 31,000  Level FlightAware ADS-B (CYQI)
10:27PM 41.9925 -66.2276 70° East 535 616 31,000  Level FlightAware ADS-B (CYQI)
10:27PM 42.0219 -66.1180 70° East 535 616 31,000  Level FlightAware ADS-B (CYQI)
10:28PM 42.0469 -66.0238 70° East 536 617 31,000  Level FlightAware ADS-B (CYQI)
10:28PM 42.0865 -65.8703 71° East 536 617 31,000  Level FlightAware ADS-B (CYQI)
10:29PM 42.1115 -65.7757 70° East 536 617 31,000  Level FlightAware ADS-B (CYQI)
10:30PM 42.1375 -65.6751 71° East 537 618 31,000  Level FlightAware ADS-B (CYQI)
10:30PM 42.1614 -65.5836 71° East 537 618 31,000  Level FlightAware ADS-B (CYQI)
10:31PM 42.1918 -65.4663 71° East 538 619 31,000  Level FlightAware ADS-B (CYQI)
10:31PM 42.2165 -65.3714 71° East 539 620 31,000  Level FlightAware ADS-B (CYQI)
10:32PM 42.2443 -65.2639 71° East 538 619 31,000  Level FlightAware ADS-B (CYQI)
10:32PM 42.2687 -65.1655 71° East 538 619 31,000  Level FlightAware ADS-B (CYQI)
10:33PM 42.3012 -65.0387 71° East 539 620 31,000  Level FlightAware ADS-B (CYQI)
10:34PM 42.3402 -64.8828 71° East 539 620 31,000  Level FlightAware ADS-B (CYQI)
10:34PM 42.3662 -64.7809 71° East 538 619 31,000  Level FlightAware ADS-B (CYQI)
10:35PM 42.3897 -64.6855 71° East 539 620 31,000  Level FlightAware ADS-B (CYQI)
10:35PM 42.4201 -64.5641 71° East 538 619 31,000  Level FlightAware ADS-B (CYQI)
10:36PM 42.4448 -64.4652 71° East 538 619 31,000  Level FlightAware ADS-B (CYQI)
10:36PM 42.4701 -64.3634 71° East 537 618 31,000  Level FlightAware ADS-B (CYQI)
10:37PM 42.4892 -64.2836 72° East 537 618 31,000  Level FlightAware ADS-B (CYQI)
10:38PM 42.5298 -64.1174 72° East 538 619 31,000  Level FlightAware ADS-B (CYQI)
10:39PM 42.5693 -63.9541 72° East 538 619 31,000  Level FlightAware ADS-B (CYQI)
10:39PM 42.5953 -63.8452 72° East 538 619 31,000  Level FlightAware ADS-B (CYQI)
10:40PM 42.6336 -63.6851 72° East 537 618 31,000  Level FlightAware ADS-B (CYQI)
10:42PM 42.7251 -63.3002 72° East 538 619 31,000  Level FlightAware ADS-B (CYQI)
10:43PM 42.7667 -63.0667 72° East 540 621 31,000  Level Gander Center
10:44PM 42.8167 -62.8333 74° East 530 610 31,000  Level Moncton Center
10:45PM 42.8667 -62.6500 70° East 540 621 31,000  Level Moncton Center
10:46PM 42.9167 -62.4333 72° East 540 621 31,000  Level Moncton Center
10:47PM 42.9500 -62.2333 77° East 530 610 31,000  Level Moncton Center
10:48PM 43.0000 -62.0500 69° East 540 621 31,000  Level Moncton Center
10:49PM 43.0333 -61.8333 78° East 540 621 31,000  Level Moncton Center
10:50PM 43.0833 -61.6500 69° East 540 621 31,000  Level Moncton Center
10:51PM 43.1333 -61.4500 71° East 530 610 31,000  Level Moncton Center
10:52PM 43.1667 -61.2333 78° East 540 621 31,000  Level Moncton Center
10:53PM 43.2000 -61.0500 76° East 540 621 31,000  Level Moncton Center
10:54PM 43.2500 -60.8667 69° East 540 621 31,000  Level Moncton Center
10:55PM 43.2833 -60.6500 78° East 540 621 31,000 480 Level Moncton Center
10:56PM 43.3333 -60.4667 69° East 550 633 32,000 900 Climbing Moncton Center
10:57PM 43.3500 -60.3167 81° East 550 633 32,600 540 Climbing Gander Center
10:58PM 43.4000 -60.1167 71° East 550 633 33,000 180 Climbing Gander Center
10:59PM 43.4333 -59.9000 78° East 540 621 33,000  Level Gander Center
11:05PM 43.7050 -58.6520 78° East 550 633 33,000  Level FlightAware
11:06PM 43.7280 -58.5220 76° East 551 634 33,000  Level FlightAware
11:07PM 43.7520 -58.3990 75° East 551 634 33,000  Level FlightAware
11:07PM 43.7740 -58.2760 76° East 551 634 33,000  Level FlightAware
11:08PM 43.8000 -58.1430 75° East 551 634 33,000  Level FlightAware
11:09PM 43.8200 -58.0390 75° East 551 634 33,000  Level FlightAware
11:09PM 43.8400 -57.9340 75° East 551 634 33,000  Level FlightAware
11:10PM 43.8600 -57.8300 75° East 551 634 33,000  Level FlightAware
11:10PM 43.8910 -57.6290 78° East 552 635 33,000  Level FlightAware
11:11PM 43.9090 -57.5260 76° East 552 635 33,000  Level FlightAware
11:12PM 43.9310 -57.4040 76° East 552 635 33,000  Level FlightAware
11:12PM 43.9500 -57.2990 76° East 552 635 33,000  Level FlightAware
11:13PM 43.9690 -57.1930 76° East 552 635 33,000  Level FlightAware
11:13PM 43.9880 -57.0880 76° East 552 635 33,000  Level FlightAware
11:14PM 44.0060 -56.9830 77° East 552 635 33,000  Level FlightAware
11:15PM 44.0260 -56.8740 76° East 552 635 33,000  Level FlightAware
11:15PM 44.0450 -56.7690 76° East 552 635 33,000  Level FlightAware
11:16PM 44.0640 -56.6630 76° East 552 635 33,000  Level FlightAware
11:16PM 44.0830 -56.5550 76° East 552 635 33,000  Level FlightAware
11:17PM 44.1020 -56.4490 76° East 552 635 33,000  Level FlightAware
11:18PM 44.1210 -56.3440 76° East 552 635 33,000  Level FlightAware
11:18PM 44.1390 -56.2440 76° East 552 635 33,000  Level FlightAware
11:19PM 44.1580 -56.1350 76° East 552 635 33,000  Level FlightAware
11:19PM 44.1770 -56.0290 76° East 552 635 33,000  Level FlightAware
11:20PM 44.1960 -55.9240 76° East 552 635 33,000  Level FlightAware
11:20PM 44.1190 -55.5460 106° East 553 636 33,000  Level FlightAware
11:21PM 44.1290 -55.4150 84° East 553 636 33,000  Level FlightAware
11:21PM 44.1370 -55.2990 84° East 553 636 33,000  Level FlightAware
11:22PM 44.1470 -55.1710 84° East 553 636 33,000  Level FlightAware
11:23PM 44.1560 -55.0400 84° East 553 636 33,000  Level FlightAware
11:23PM 44.1630 -54.9340 85° East 554 638 33,000  Level FlightAware
11:24PM 44.1680 -54.8130 87° East 556 640 33,000  Level FlightAware
11:24PM 44.1720 -54.6910 87° East 556 640 33,000  Level FlightAware
11:25PM 44.1760 -54.5870 87° East 556 640 33,000  Level FlightAware
11:26PM 44.1710 -54.4260 92° East 557 641 33,000  Level FlightAware
11:26PM 44.1720 -54.3010 89° East 557 641 33,000  Level FlightAware
11:27PM 44.1730 -54.1930 89° East 557 641 33,000  Level FlightAware
11:27PM 44.1730 -54.0570 90° East 557 641 33,000  Level FlightAware
11:28PM 44.1730 -53.9250 90° East 556 640 33,000  Level FlightAware
11:29PM 44.1740 -53.8060 89° East 556 640 33,000  Level FlightAware
11:29PM 44.1730 -53.6180 90° East 554 638 33,000  Level FlightAware
11:30PM 44.1730 -53.5000 90° East 554 638 33,000  Level FlightAware
11:30PM 44.1730 -53.4000 90° East 554 638 33,000  Level FlightAware
11:31PM 44.1730 -53.2480 90° East 553 636 33,000  Level FlightAware
11:32PM 44.1720 -53.0710 90° East 552 635 33,000  Level FlightAware
11:33PM 44.1710 -52.9280 91° East 552 635 33,000  Level FlightAware
11:33PM 44.1700 -52.7970 91° East 551 634 33,000  Level FlightAware
11:34PM 44.1690 -52.6810 91° East 551 634 33,000  Level FlightAware
11:34PM 44.1680 -52.5530 91° East 551 634 33,000  Level FlightAware
11:35PM 44.1650 -52.4220 92° East 552 635 33,000  Level FlightAware
11:35PM 44.1667 -52.4333 95° East 555 639 33,000  Level New York Oceanic (ODAPS)
11:35PM 44.1333 -52.2667 95° East 570 656 33,000  Level Moncton Center
11:36PM 44.1580 -52.2670 94° East 553 636 33,000  Level FlightAware
11:36PM 44.1520 -52.1580 94° East 553 636 33,000  Level FlightAware
11:37PM 44.1420 -52.0150 96° East 552 635 33,000  Level FlightAware
11:37PM 44.1340 -51.8840 95° East 552 635 33,000  Level FlightAware
11:38PM 44.1260 -51.7640 95° East 552 635 33,000  Level FlightAware
11:39PM 44.1170 -51.6190 95° East 552 635 33,000  Level FlightAware
11:39PM 44.1080 -51.4820 95° East 552 635 33,000  Level FlightAware
11:40PM 44.0950 -51.2840 95° East 553 636 33,000  Level FlightAware
11:41PM 44.0870 -51.1740 95° East 553 636 33,000  Level FlightAware
11:41PM 44.0800 -51.0640 95° East 553 636 33,000  Level FlightAware
11:42PM 44.0730 -50.9550 95° East 553 636 33,000  Level FlightAware
11:43PM 44.0660 -50.8470 95° East 553 636 33,000  Level FlightAware
11:43PM 44.0590 -50.7350 95° East 553 636 33,000  Level FlightAware
11:44PM 44.0520 -50.6240 95° East 553 636 33,000  Level FlightAware
11:44PM 44.0450 -50.5150 95° East 553 636 33,000  Level FlightAware
11:45PM 44.0390 -50.4070 94° East 553 636 33,000  Level FlightAware
11:46PM 44.0320 -50.2980 95° East 553 636 33,000  Level FlightAware
11:46PM 44.0250 -50.1900 95° East 553 636 33,000  Level FlightAware
11:47PM 44.0180 -50.0810 95° East 553 636 33,000  Level FlightAware
11:47PM 44.0000 -50.0000 79° East 544 626 33,000  Level New York Oceanic (ODAPS)
11:47PM 44.0110 -49.9730 95° East 553 636 33,000  Level FlightAware
11:48PM 44.0040 -49.8650 95° East 553 636 33,000  Level FlightAware
11:49PM 43.9970 -49.7560 95° East 553 636 33,000  Level FlightAware
11:49PM 44.0667 -49.5000 79° East 539 620 33,000  Level New York Oceanic (ODAPS)
11:49PM 43.9900 -49.6450 95° East 553 636 33,000  Level FlightAware
11:50PM 43.9840 -49.5360 94° East 553 636 33,000  Level FlightAware
11:50PM 43.9770 -49.4280 95° East 553 636 33,000  Level FlightAware
11:55PM 44.2327 -48.2798 80° East 539 620 33,000  Level FlightAware Transoceanic
11:56PM 44.2591 -48.0758 80° East 539 620 33,000  Level FlightAware Transoceanic
11:57PM 44.2852 -47.8716 80° East 539 620 33,000  Level FlightAware Transoceanic
11:58PM 44.3109 -47.6672 80° East 539 620 33,000  Level FlightAware Transoceanic
11:59PM 44.3362 -47.4626 80° East 539 620 33,000  Level FlightAware Transoceanic
12:00AM 44.3611 -47.2579 80° East 539 620 33,000  Level FlightAware Transoceanic
12:01AM 44.3857 -47.0530 81° East 539 620 33,000  Level FlightAware Transoceanic
12:02AM 44.4100 -46.8479 81° East 539 620 33,000  Level FlightAware Transoceanic
12:03AM 44.4338 -46.6426 81° East 539 620 33,000  Level FlightAware Transoceanic
12:04AM 44.4573 -46.4372 81° East 539 620 33,000  Level FlightAware Transoceanic
12:05AM 44.4804 -46.2316 81° East 539 620 33,000  Level FlightAware Transoceanic
12:06AM 44.5032 -46.0259 81° East 539 620 33,000  Level FlightAware Transoceanic
12:07AM 44.5256 -45.8200 81° East 539 620 33,000  Level FlightAware Transoceanic
12:08AM 44.5476 -45.6139 82° East 539 620 33,000  Level FlightAware Transoceanic
12:09AM 44.5692 -45.4077 82° East 539 620 33,000  Level FlightAware Transoceanic
12:10AM 44.5905 -45.2013 82° East 539 620 33,000  Level FlightAware Transoceanic
12:11AM 44.6114 -44.9948 82° East 539 620 33,000  Level FlightAware Transoceanic
12:12AM 44.6319 -44.7882 82° East 539 620 33,000  Level FlightAware Transoceanic
12:13AM 44.6520 -44.5813 82° East 539 620 33,000  Level FlightAware Transoceanic
12:14AM 44.6718 -44.3744 82° East 539 620 33,000  Level FlightAware Transoceanic
12:15AM 44.6912 -44.1673 83° East 539 620 33,000  Level FlightAware Transoceanic
12:16AM 44.7102 -43.9601 83° East 539 620 33,000  Level FlightAware Transoceanic
12:17AM 44.7289 -43.7527 83° East 539 620 33,000  Level FlightAware Transoceanic
12:18AM 44.7472 -43.5452 83° East 539 620 33,000  Level FlightAware Transoceanic
12:19AM 44.7651 -43.3376 83° East 539 620 33,000  Level FlightAware Transoceanic
12:20AM 44.7826 -43.1298 83° East 539 620 33,000  Level FlightAware Transoceanic
12:21AM 44.7997 -42.9220 83° East 539 620 33,000  Level FlightAware Transoceanic
12:22AM 44.8165 -42.7140 84° East 539 620 33,000  Level FlightAware Transoceanic
12:23AM 44.8329 -42.5058 84° East 539 620 33,000  Level FlightAware Transoceanic
12:24AM 44.8489 -42.2976 84° East 539 620 33,000  Level FlightAware Transoceanic
12:25AM 44.8646 -42.0892 84° East 539 620 33,000  Level FlightAware Transoceanic
12:26AM 44.8798 -41.8808 84° East 539 620 33,000  Level FlightAware Transoceanic
12:27AM 44.8947 -41.6722 84° East 539 620 33,000  Level FlightAware Transoceanic
12:28AM 44.9092 -41.4635 84° East 539 620 33,000  Level FlightAware Transoceanic
12:29AM 44.9233 -41.2547 85° East 539 620 33,000  Level FlightAware Transoceanic
12:30AM 44.9370 -41.0458 85° East 539 620 33,000  Level FlightAware Transoceanic
12:30AM 44.0000 -50.0000 79° East 528 608 33,000  Level ETMS Enhanced Traffic Management System
12:31AM 44.9504 -40.8369 85° East 539 620 33,000  Level FlightAware Transoceanic
12:32AM 44.9634 -40.6278 85° East 539 620 33,000  Level FlightAware Transoceanic
12:33AM 44.9760 -40.4186 85° East 539 620 33,000  Level FlightAware Transoceanic
12:34AM 44.9882 -40.2094 85° East 539 620 33,000  Level FlightAware Transoceanic
12:35AM 45.0000 -40.0000 70° East 539 620 33,000  Level FlightAware Transoceanic
12:36AM 45.0504 -39.7994 71° East 528 608 33,000  Level FlightAware Transoceanic
12:37AM 45.1004 -39.5984 71° East 528 608 33,000  Level FlightAware Transoceanic
12:38AM 45.1500 -39.3971 71° East 528 608 33,000  Level FlightAware Transoceanic
12:39AM 45.1993 -39.1954 71° East 528 608 33,000  Level FlightAware Transoceanic
12:40AM 45.2483 -38.9934 71° East 528 608 33,000  Level FlightAware Transoceanic
12:41AM 45.2969 -38.7910 71° East 528 608 33,000  Level FlightAware Transoceanic
12:42AM 45.3451 -38.5883 71° East 528 608 33,000  Level FlightAware Transoceanic
12:43AM 45.3930 -38.3852 72° East 528 608 33,000  Level FlightAware Transoceanic
12:44AM 45.4405 -38.1818 72° East 528 608 33,000  Level FlightAware Transoceanic
12:45AM 45.4876 -37.9781 72° East 528 608 33,000  Level FlightAware Transoceanic
12:46AM 45.5344 -37.7740 72° East 528 608 33,000  Level FlightAware Transoceanic
12:47AM 45.5808 -37.5695 72° East 528 608 33,000  Level FlightAware Transoceanic
12:48AM 45.6269 -37.3648 72° East 528 608 33,000  Level FlightAware Transoceanic
12:49AM 45.6726 -37.1597 72° East 528 608 33,000  Level FlightAware Transoceanic
12:50AM 45.7179 -36.9543 73° East 528 608 33,000  Level FlightAware Transoceanic
12:51AM 45.7629 -36.7485 73° East 528 608 33,000  Level FlightAware Transoceanic
12:52AM 45.8075 -36.5424 73° East 528 608 33,000  Level FlightAware Transoceanic
12:53AM 45.8517 -36.3360 73° East 528 608 33,000  Level FlightAware Transoceanic
12:54AM 45.8955 -36.1292 73° East 528 608 33,000  Level FlightAware Transoceanic
12:55AM 45.9390 -35.9221 73° East 528 608 33,000  Level FlightAware Transoceanic
12:56AM 45.9821 -35.7147 73° East 528 608 33,000  Level FlightAware Transoceanic
12:57AM 46.0248 -35.5070 74° East 528 608 33,000  Level FlightAware Transoceanic
12:58AM 46.0672 -35.2990 74° East 528 608 33,000  Level FlightAware Transoceanic
12:59AM 46.1091 -35.0906 74° East 528 608 33,000  Level FlightAware Transoceanic
01:00AM 46.1507 -34.8819 74° East 528 608 33,000  Level FlightAware Transoceanic
01:01AM 46.1919 -34.6729 74° East 528 608 33,000  Level FlightAware Transoceanic
01:02AM 46.2327 -34.4636 74° East 528 608 33,000  Level FlightAware Transoceanic
01:03AM 46.2732 -34.2540 74° East 528 608 33,000  Level FlightAware Transoceanic
01:04AM 46.3132 -34.0441 75° East 528 608 33,000  Level FlightAware Transoceanic
01:05AM 46.3529 -33.8339 75° East 528 608 33,000  Level FlightAware Transoceanic
01:06AM 46.3922 -33.6233 75° East 528 608 33,000  Level FlightAware Transoceanic
01:07AM 46.4311 -33.4125 75° East 528 608 33,000  Level FlightAware Transoceanic
01:08AM 46.4696 -33.2014 75° East 528 608 33,000  Level FlightAware Transoceanic
01:09AM 46.5077 -32.9899 75° East 528 608 33,000  Level FlightAware Transoceanic
01:10AM 46.5454 -32.7782 76° East 528 608 33,000  Level FlightAware Transoceanic
01:11AM 46.5828 -32.5662 76° East 528 608 33,000  Level FlightAware Transoceanic
01:12AM 46.6197 -32.3539 76° East 528 608 33,000  Level FlightAware Transoceanic
01:13AM 46.6563 -32.1413 76° East 528 608 33,000  Level FlightAware Transoceanic
01:14AM 46.6925 -31.9284 76° East 528 608 33,000  Level FlightAware Transoceanic
01:15AM 46.7282 -31.7153 76° East 528 608 33,000  Level FlightAware Transoceanic
01:16AM 46.7636 -31.5018 76° East 528 608 33,000  Level FlightAware Transoceanic
01:17AM 46.7986 -31.2881 77° East 528 608 33,000  Level FlightAware Transoceanic
01:18AM 46.8331 -31.0741 77° East 528 608 33,000  Level FlightAware Transoceanic
01:19AM 46.8673 -30.8598 77° East 528 608 33,000  Level FlightAware Transoceanic
01:20AM 46.9011 -30.6453 77° East 528 608 33,000  Level FlightAware Transoceanic
01:21AM 46.9345 -30.4304 77° East 528 608 33,000  Level FlightAware Transoceanic
01:22AM 46.9674 -30.2153 77° East 528 608 33,000  Level FlightAware Transoceanic
01:23AM 46.9865 -29.9990 83° East  Level Estimated
01:24AM 47.0053 -29.7825 83° East  Level Estimated
01:25AM 47.0236 -29.5658 83° East  Level Estimated
01:26AM 47.0415 -29.3490 83° East  Level Estimated
01:27AM 47.0589 -29.1326 83° East  Level Estimated
01:28AM 47.0759 -28.9160 83° East  Level Estimated
01:29AM 47.0925 -28.6993 83° East  Level Estimated
01:30AM 47.1087 -28.4825 84° East  Level Estimated
01:31AM 47.1245 -28.2655 84° East  Level Estimated
01:32AM 47.1399 -28.0484 84° East  Level Estimated
01:33AM 47.1549 -27.8312 84° East  Level Estimated
01:34AM 47.1695 -27.6138 84° East  Level Estimated
01:35AM 47.1837 -27.3964 84° East  Level Estimated
01:36AM 47.1974 -27.1788 85° East  Level Estimated
01:37AM 47.2108 -26.9611 85° East  Level Estimated
01:38AM 47.2237 -26.7433 85° East  Level Estimated
01:39AM 47.2362 -26.5254 85° East  Level Estimated
01:40AM 47.2483 -26.3074 85° East  Level Estimated
01:41AM 47.2600 -26.0893 85° East  Level Estimated
01:42AM 47.2713 -25.8712 86° East  Level Estimated
01:43AM 47.2821 -25.6529 86° East  Level Estimated
01:44AM 47.2925 -25.4345 86° East  Level Estimated
01:45AM 47.3026 -25.2161 86° East  Level Estimated
01:46AM 47.3122 -24.9975 86° East  Level Estimated
01:47AM 47.3214 -24.7789 86° East  Level Estimated
01:48AM 47.3302 -24.5602 87° East  Level Estimated
01:49AM 47.3385 -24.3415 87° East  Level Estimated
01:50AM 47.3465 -24.1226 87° East  Level Estimated
01:51AM 47.3540 -23.9037 87° East  Level Estimated
01:52AM 47.3611 -23.6848 87° East  Level Estimated
01:53AM 47.3678 -23.4658 87° East  Level Estimated
01:54AM 47.3741 -23.2467 87° East  Level Estimated
01:55AM 47.3800 -23.0276 88° East  Level Estimated
01:56AM 47.3854 -22.8085 88° East  Level Estimated
01:57AM 47.3905 -22.5893 88° East  Level Estimated
01:58AM 47.3951 -22.3700 88° East  Level Estimated
01:59AM 47.3993 -22.1507 88° East  Level Estimated
02:00AM 47.4030 -21.9314 88° East  Level Estimated
02:01AM 47.4064 -21.7121 89° East  Level Estimated
02:02AM 47.4093 -21.4927 89° East  Level Estimated
02:03AM 47.4118 -21.2733 89° East  Level Estimated
02:04AM 47.4140 -21.0539 89° East  Level Estimated
02:05AM 47.4156 -20.8345 89° East  Level Estimated
02:06AM 47.4169 -20.6150 89° East  Level Estimated
02:07AM 47.4177 -20.3956 90° East  Level Estimated
02:08AM 47.4182 -20.1761 90° East  Level Estimated
02:09AM 47.4182 -19.9567 90° East  Level Estimated
02:10AM 47.4178 -19.7376 90° East  Level Estimated
02:11AM 47.4169 -19.5186 90° East  Level Estimated
02:12AM 47.4157 -19.2995 90° East  Level Estimated
02:13AM 47.4140 -19.0805 91° East  Level Estimated
02:14AM 47.4119 -18.8615 91° East  Level Estimated
02:15AM 47.4095 -18.6425 91° East  Level Estimated
02:16AM 47.4065 -18.4235 91° East  Level Estimated
02:17AM 47.4032 -18.2045 91° East  Level Estimated
02:18AM 47.3995 -17.9856 91° East  Level Estimated
02:19AM 47.3953 -17.7667 92° East  Level Estimated
02:20AM 47.3907 -17.5478 92° East  Level Estimated
02:21AM 47.3857 -17.3290 92° East  Level Estimated
02:22AM 47.3803 -17.1103 92° East  Level Estimated
02:23AM 47.3745 -16.8915 92° East  Level Estimated
02:24AM 47.3682 -16.6728 92° East  Level Estimated
02:25AM 47.3616 -16.4542 92° East  Level Estimated
02:26AM 47.3545 -16.2357 93° East  Level Estimated
02:27AM 47.3470 -16.0172 93° East  Level Estimated
02:28AM 47.3391 -15.7987 93° East  Level Estimated
02:29AM 47.3308 -15.5803 93° East  Level Estimated
02:30AM 47.3220 -15.3620 93° East  Level Estimated
02:31AM 47.3129 -15.1438 93° East  Level Estimated
02:32AM 47.3033 -14.9256 94° East  Level Estimated
02:33AM 47.2933 -14.7076 94° East  Level Estimated
02:34AM 47.2829 -14.4896 94° East  Level Estimated
02:35AM 47.2721 -14.2717 94° East  Level Estimated
02:36AM 47.2609 -14.0539 94° East  Level Estimated
02:37AM 47.2493 -13.8362 94° East  Level Estimated
02:38AM 47.2372 -13.6185 95° East  Level Estimated
02:39AM 47.2248 -13.4010 95° East  Level Estimated
02:40AM 47.2119 -13.1836 95° East  Level Estimated
02:41AM 47.1986 -12.9663 95° East  Level Estimated
02:42AM 47.1849 -12.7491 95° East  Level Estimated
02:43AM 47.1708 -12.5320 95° East  Level Estimated
02:44AM 47.1563 -12.3150 96° East  Level Estimated
02:45AM 47.1414 -12.0982 96° East  Level Estimated
02:46AM 47.1261 -11.8815 96° East  Level Estimated
02:47AM 47.1103 -11.6649 96° East  Level Estimated
02:47AM 48.7890 -9.5130 96° East 616 709 33,000  Level FlightAware
02:48AM 47.0942 -11.4484 96° East  Level Estimated
02:48AM 48.7780 -9.3550 96° East 617 710 33,000  Level FlightAware
02:49AM 48.7670 -9.1920 96° East 617 710 33,000  Level FlightAware
02:49AM 48.7580 -9.0540 96° East 617 710 33,000  Level FlightAware
02:50AM 48.7470 -8.8950 96° East 617 710 33,000  Level FlightAware
02:50AM 48.7370 -8.7540 96° East 617 710 33,000  Level FlightAware
02:51AM 48.7250 -8.5950 96° East 617 710 33,000  Level FlightAware
02:52AM 48.7140 -8.4490 96° East 617 710 33,000  Level FlightAware
02:52AM 48.7050 -8.3210 96° East 617 710 33,000  Level FlightAware
02:53AM 48.6895 -8.1441 96° East 498 573 33,000  Level FlightAware UK
02:53AM 48.6920 -8.1540 96° East 619 712 33,000  Level FlightAware
02:53AM 48.6810 -8.0030 96° East 620 713 33,000  Level FlightAware
02:54AM 48.6680 -7.8570 98° East 623 717 33,000  Level FlightAware
02:55AM 48.6460 -7.7040 102° East 623 717 33,000  Level FlightAware
02:55AM 48.6140 -7.5590 108° East 623 717 33,000  Level FlightAware
02:56AM 48.5720 -7.4060 112° Southeast 622 716 33,000  Level FlightAware
02:56AM 48.5390 -7.2820 112° Southeast 623 717 33,000  Level FlightAware
02:56AM 48.5358 -7.2714 112° Southeast 500 575 33,000  Level FlightAware UK
02:57AM 48.5023 -7.1511 112° Southeast 502 578 33,000  Level FlightAware UK
02:57AM 48.5020 -7.1500 112° Southeast 624 718 33,000  Level FlightAware
02:57AM 48.4560 -6.9860 113° Southeast 624 718 33,000  Level FlightAware
02:58AM 48.4170 -6.8500 113° Southeast 625 719 33,000  Level FlightAware
02:59AM 48.3800 -6.7230 114° Southeast 625 719 33,000  Level FlightAware
02:59AM 48.3370 -6.5750 114° Southeast 627 722 33,000  Level FlightAware
03:00AM 48.2968 -6.4312 114° Southeast 500 575 33,000  Level FlightAware UK
03:00AM 48.2980 -6.4390 114° Southeast 628 723 33,000  Level FlightAware
03:00AM 48.2619 -6.3119 114° Southeast 500 575 33,000  Level FlightAware UK
03:00AM 48.2550 -6.2880 114° Southeast 628 723 33,000  Level FlightAware
03:01AM 48.2170 -6.1600 114° Southeast 627 722 33,000  Level FlightAware
03:01AM 48.1760 -6.0210 114° Southeast 625 719 33,000  Level FlightAware
03:02AM 48.1330 -5.8750 114° Southeast 624 718 33,000  Level FlightAware
03:03AM 48.0950 -5.7490 114° Southeast 622 716 33,000  Level FlightAware
03:03AM 48.0520 -5.6040 114° Southeast 622 716 33,000  Level FlightAware
03:04AM 48.0090 -5.4600 114° Southeast 620 713 33,000  Level FlightAware
03:04AM 47.9740 -5.3470 115° Southeast 616 709 33,000  Level FlightAware
03:05AM 47.9290 -5.2000 115° Southeast 612 704 33,000  Level FlightAware
03:06AM 47.8860 -5.0590 114° Southeast 612 704 33,000  Level FlightAware
03:06AM 47.8470 -4.9330 115° Southeast 611 703 33,000  Level FlightAware
03:07AM 47.8030 -4.7910 115° Southeast 611 703 33,000  Level FlightAware
03:07AM 47.7540 -4.6310 114° Southeast 612 704 33,000 60 Level FlightAware
03:08AM 47.7150 -4.5090 115° Southeast 615 708 33,100 840 Climbing FlightAware
03:09AM 47.6700 -4.3680 115° Southeast 613 705 34,000 1,500 Climbing FlightAware
03:09AM 47.6340 -4.2500 114° Southeast 608 700 34,900 840 Climbing FlightAware
03:10AM 47.5910 -4.1110 115° Southeast 606 697 35,000 60 Climbing FlightAware
03:10AM 47.5480 -3.9760 115° Southeast 604 695 35,000  Level FlightAware
03:11AM 47.5070 -3.8450 115° Southeast 603 694 35,000  Level FlightAware
03:12AM 47.4680 -3.7220 115° Southeast 601 692 35,000  Level FlightAware
03:12AM 47.4200 -3.5700 115° Southeast 600 690 35,000  Level FlightAware
03:13AM 47.3800 -3.4490 116° Southeast 599 689 35,000  Level FlightAware
03:13AM 47.3380 -3.3190 115° Southeast 599 689 35,000  Level FlightAware
03:14AM 47.2940 -3.1840 116° Southeast 601 692 35,000  Level FlightAware
03:14AM 47.2650 -3.0650 110° East 600 690 35,000  Level FlightAware
03:15AM 47.2330 -2.9130 107° East 600 690 35,000  Level FlightAware
03:16AM 47.2040 -2.7770 107° East 602 693 35,000  Level FlightAware
03:16AM 47.1750 -2.6360 107° East 603 694 35,000  Level FlightAware
03:17AM 47.1410 -2.4840 108° East 605 696 35,000  Level FlightAware
03:18AM 47.1120 -2.3460 107° East 606 697 35,000  Level FlightAware
03:18AM 47.0810 -2.2010 107° East 606 697 35,000  Level FlightAware
03:18AM 47.0756 -2.1783 109° East 607 699 35,000  Level FlightAware ADS-B (LFBU / ANG)
03:19AM 47.0210 -1.9270 108° East 607 699 35,000  Level FlightAware
03:20AM 46.9890 -1.7830 108° East 607 699 35,000  Level FlightAware
03:21AM 46.9510 -1.6322 110° East 610 702 35,000  Level FlightAware ADS-B (LFBU / ANG)
03:21AM 46.9180 -1.5140 112° Southeast 609 701 35,000  Level FlightAware
03:22AM 46.8790 -1.3770 113° Southeast 611 703 35,000  Level FlightAware
03:22AM 46.8400 -1.2400 113° Southeast 612 704 35,000  Level FlightAware
03:23AM 46.8187 -1.1679 113° Southeast 613 705 35,000  Level FlightAware ADS-B (LFBU / ANG)
03:23AM 46.7660 -0.9850 113° Southeast 613 705 35,000  Level FlightAware
03:24AM 46.7290 -0.8560 113° Southeast 614 707 35,000  Level FlightAware
03:25AM 46.6890 -0.7190 113° Southeast 613 705 35,000  Level FlightAware
03:25AM 46.6824 -0.7002 117° Southeast 614 707 35,000  Level FlightAware ADS-B (LFBU / ANG)
03:26AM 46.6247 -0.5032 113° Southeast 614 707 35,000  Level FlightAware ADS-B (LFBU / ANG)
03:26AM 46.5720 -0.3250 113° Southeast 613 705 35,000  Level FlightAware
03:27AM 46.5589 -0.2802 113° Southeast 613 705 35,000  Level FlightAware ADS-B (LFBU / ANG)
03:27AM 46.4920 -0.0570 113° Southeast 613 705 35,000  Level FlightAware
03:28AM 46.4729 0.0066 114° Southeast 612 704 35,000  Level FlightAware ADS-B (LFBU / ANG)
03:29AM 46.4160 0.1980 113° Southeast 610 702 35,000  Level FlightAware
03:29AM 46.4039 0.2393 113° Southeast 611 703 35,000  Level FlightAware ADS-B (LFBU / ANG)
03:30AM 46.3350 0.4630 114° Southeast 609 701 35,000  Level FlightAware
03:30AM 46.2920 0.6040 114° Southeast 608 700 35,000  Level FlightAware
03:31AM 46.2510 0.7380 114° Southeast 607 699 35,000  Level FlightAware
03:32AM 46.2170 0.8490 114° Southeast 607 699 35,000  Level FlightAware
03:32AM 46.1780 0.9750 114° Southeast 607 699 35,000  Level FlightAware
03:33AM 46.1330 1.1230 114° Southeast 605 696 35,000  Level FlightAware
03:33AM 46.0960 1.2440 114° Southeast 603 694 35,000  Level FlightAware
03:34AM 46.0560 1.3720 114° Southeast 602 693 35,000  Level FlightAware
03:34AM 46.0130 1.5030 115° Southeast 601 692 35,000  Level FlightAware
03:35AM 45.9710 1.6330 115° Southeast 599 689 35,000  Level FlightAware
03:36AM 45.9340 1.7480 115° Southeast 599 689 35,000  Level FlightAware
03:36AM 45.8950 1.8670 115° Southeast 598 688 35,000  Level FlightAware
03:37AM 45.8530 1.9960 115° Southeast 597 687 35,000  Level FlightAware
03:37AM 45.8050 2.1390 116° Southeast 596 686 35,000  Level FlightAware
03:38AM 45.7640 2.2640 115° Southeast 595 685 35,000  Level FlightAware
03:39AM 45.7200 2.3980 115° Southeast 593 682 35,000  Level FlightAware
03:39AM 45.6820 2.5110 116° Southeast 592 681 35,000  Level FlightAware
03:40AM 45.6390 2.6380 116° Southeast 592 681 35,000  Level FlightAware
03:41AM 45.5860 2.7930 116° Southeast 590 679 35,000  Level FlightAware
03:41AM 45.5440 2.9190 115° Southeast 590 679 35,000  Level FlightAware
03:42AM 45.5060 3.0310 116° Southeast 589 678 35,000  Level FlightAware
03:42AM 45.4660 3.1450 117° Southeast 587 676 35,000  Level FlightAware
03:43AM 45.4210 3.2770 116° Southeast 584 672 35,000  Level FlightAware
03:43AM 45.3770 3.4070 116° Southeast 580 667 35,000  Level FlightAware
03:44AM 45.3390 3.5160 116° Southeast 577 664 35,000  Level FlightAware
03:45AM 45.2980 3.6350 116° Southeast 575 662 35,000  Level FlightAware
03:45AM 45.2520 3.7460 120° Southeast 577 664 35,000  Level FlightAware
03:46AM 45.1970 3.8760 121° Southeast 577 664 35,000  Level FlightAware
03:46AM 45.1560 3.9740 121° Southeast 577 664 35,000  Level FlightAware
03:47AM 45.1080 4.0910 120° Southeast 578 665 35,000  Level FlightAware
03:48AM 45.0600 4.2090 120° Southeast 579 666 35,000  Level FlightAware
03:48AM 45.0360 4.2675 120° Southeast 579 666 35,000  Level FlightAware ADS-B
03:48AM 44.9841 4.3918 121° Southeast 582 670 35,000  Level FlightAware ADS-B
03:49AM 44.9384 4.5032 120° Southeast 583 671 35,000  Level FlightAware ADS-B
03:50AM 44.8980 4.5982 121° Southeast 584 672 35,000  Level FlightAware ADS-B
03:50AM 44.8421 4.7326 120° Southeast 585 673 35,000  Level FlightAware ADS-B
03:51AM 44.8033 4.8245 121° Southeast 586 674 35,000  Level FlightAware ADS-B
03:51AM 44.7458 4.9620 120° Southeast 586 674 35,000  Level FlightAware ADS-B
03:52AM 44.6898 5.0926 121° Southeast 586 674 35,000  Level FlightAware ADS-B
03:53AM 44.6379 5.2072 122° Southeast 585 673 35,000  Level FlightAware ADS-B
03:53AM 44.5739 5.3300 126° Southeast 584 672 35,000  Level FlightAware ADS-B
03:54AM 44.5052 5.4658 125° Southeast 583 671 35,000  Level FlightAware ADS-B
03:55AM 44.4376 5.5976 126° Southeast 582 670 35,000  Level FlightAware ADS-B
03:56AM 44.3500 5.7680 126° Southeast 580 667 35,000  Level FlightAware
03:56AM 44.3269 5.8104 127° Southeast 580 667 35,000  Level FlightAware ADS-B
03:57AM 44.2694 5.9223 126° Southeast 580 667 35,000  Level FlightAware ADS-B
03:57AM 44.2084 6.0397 126° Southeast 578 665 35,000  Level FlightAware ADS-B
03:58AM 44.1594 6.1327 126° Southeast 577 664 35,000  Level FlightAware ADS-B
03:58AM 44.1115 6.2225 127° Southeast 576 663 35,000  Level FlightAware ADS-B
03:59AM 44.0522 6.3356 126° Southeast 574 661 35,000  Level FlightAware ADS-B
03:59AM 43.9881 6.4568 126° Southeast 571 657 35,000  Level FlightAware ADS-B
04:00AM 43.9245 6.5746 127° Southeast 569 655 35,000  Level FlightAware ADS-B
04:01AM 43.8746 6.6680 127° Southeast 566 651 35,000  Level FlightAware ADS-B
04:01AM 43.8174 6.7797 125° Southeast 564 649 35,000  Level FlightAware ADS-B
04:02AM 43.7700 6.8826 122° Southeast 560 644 35,000  Level FlightAware ADS-B
04:02AM 43.7216 6.9883 122° Southeast 560 644 35,000  Level FlightAware ADS-B
04:03AM 43.6590 7.1320 121° Southeast 556 640 35,000  Level FlightAware
04:04AM 43.6120 7.2380 121° Southeast 557 641 35,000  Level FlightAware
04:04AM 43.5650 7.3470 121° Southeast 557 641 35,000  Level FlightAware
04:05AM 43.5270 7.4280 123° Southeast 556 640 35,000  Level FlightAware
04:06AM 43.4720 7.5510 122° Southeast 557 641 35,000 60 Level FlightAware
04:06AM 43.4200 7.6660 122° Southeast 558 642 35,100 600 Climbing FlightAware
04:07AM 43.3750 7.7620 123° Southeast 560 644 35,700 1,140 Climbing FlightAware
04:07AM 43.3280 7.8640 122° Southeast 559 643 36,400 1,080 Climbing FlightAware
04:08AM 43.2760 7.9780 122° Southeast 556 640 37,000 480 Climbing FlightAware
04:09AM 43.2270 8.0850 122° Southeast 554 638 37,000  Level FlightAware
04:09AM 43.1820 8.1830 122° Southeast 551 634 37,000  Level FlightAware
04:10AM 43.1350 8.2860 122° Southeast 548 631 37,000  Level FlightAware
04:10AM 43.0850 8.3940 122° Southeast 545 627 37,000  Level FlightAware
04:11AM 43.0330 8.5040 123° Southeast 542 624 37,000  Level FlightAware
04:12AM 42.9840 8.6100 122° Southeast 540 621 37,000  Level FlightAware
04:12AM 42.9360 8.7140 122° Southeast 538 619 37,000  Level FlightAware
04:13AM 42.8970 8.7960 123° Southeast 537 618 37,000  Level FlightAware
04:13AM 42.8310 8.9350 123° Southeast 534 615 37,000  Level FlightAware
04:14AM 42.7830 9.0370 123° Southeast 534 615 37,000  Level FlightAware
04:15AM 42.7390 9.1270 124° Southeast 533 613 37,000  Level FlightAware
04:15AM 42.6910 9.2290 123° Southeast 532 612 37,000  Level FlightAware
04:16AM 42.6430 9.3290 123° Southeast 531 611 37,000  Level FlightAware
04:16AM 42.5990 9.4240 122° Southeast 530 610 37,000  Level FlightAware
04:17AM 42.5590 9.5310 117° Southeast 528 608 37,000  Level FlightAware
04:18AM 42.5290 9.6390 111° Southeast 526 605 37,000  Level FlightAware
04:18AM 42.5020 9.7420 110° East 525 604 37,000  Level FlightAware
04:19AM 42.4750 9.8460 109° East 521 600 37,000  Level FlightAware
04:19AM 42.4440 9.9630 110° East 519 597 37,000  Level FlightAware
04:20AM 42.4160 10.0660 110° East 517 595 37,000  Level FlightAware
04:20AM 42.3880 10.1730 109° East 515 593 37,000  Level FlightAware
04:21AM 42.3620 10.2690 110° East 514 592 37,000  Level FlightAware
04:22AM 42.3300 10.3830 111° Southeast 513 590 37,000  Level FlightAware
04:22AM 42.2950 10.5120 110° East 511 588 37,000  Level FlightAware
04:23AM 42.2650 10.6200 111° Southeast 512 589 37,000  Level FlightAware
04:23AM 42.2390 10.7160 110° East 512 589 37,000  Level FlightAware
04:24AM 42.2090 10.8230 111° Southeast 512 589 37,000  Level FlightAware
04:25AM 42.1780 10.9340 111° Southeast 512 589 37,000  Level FlightAware
04:25AM 42.1510 11.0290 111° Southeast 513 590 37,000  Level FlightAware
04:26AM 42.1210 11.1370 110° East 513 590 37,000  Level FlightAware
04:26AM 42.0900 11.2440 111° Southeast 512 589 37,000  Level FlightAware
04:27AM 42.0610 11.3380 113° Southeast 509 586 37,000  Level FlightAware
04:27AM 42.0390 11.3800 125° Southeast 507 583 37,000  Level FlightAware
04:28AM 41.9800 11.4610 134° Southeast 507 583 37,000  Level FlightAware
04:28AM 41.9290 11.5340 133° Southeast 506 582 37,000  Level FlightAware
04:29AM 41.8690 11.6260 131° Southeast 507 583 37,000  Level FlightAware
04:30AM 41.8150 11.7100 131° Southeast 507 583 37,000  Level FlightAware
04:30AM 41.7640 11.7840 133° Southeast 505 581 37,000  Level FlightAware
04:31AM 41.7060 11.8660 133° Southeast 507 583 37,000  Level FlightAware
04:31AM 41.6470 11.9500 133° Southeast 507 583 37,000  Level FlightAware
04:32AM 41.5910 12.0270 134° Southeast 508 585 37,000  Level FlightAware
04:32AM 41.5370 12.1020 134° Southeast 509 586 37,000  Level FlightAware
04:33AM 41.4780 12.1830 134° Southeast 511 588 37,000  Level FlightAware
04:34AM 41.4180 12.2670 134° Southeast 512 589 37,000  Level FlightAware
04:34AM 41.3650 12.3400 134° Southeast 514 592 37,000  Level FlightAware
04:35AM 41.3070 12.4190 134° Southeast 514 592 37,000  Level FlightAware
04:35AM 41.2430 12.5080 134° Southeast 516 594 37,000  Level FlightAware
04:36AM 41.1900 12.5790 135° Southeast 516 594 37,000  Level FlightAware
04:37AM 41.1300 12.6630 133° Southeast 517 595 37,000  Level FlightAware
04:37AM 41.0690 12.7450 135° Southeast 516 594 37,000  Level FlightAware
04:38AM 41.0160 12.8170 134° Southeast 518 596 37,000  Level FlightAware
04:38AM 40.9590 12.8940 134° Southeast 519 597 37,000  Level FlightAware
04:39AM 40.8990 12.9900 130° Southeast 523 602 37,000  Level FlightAware
04:39AM 40.8540 13.0880 121° Southeast 524 603 37,000  Level FlightAware
04:40AM 40.8160 13.1740 120° Southeast 523 602 37,000  Level FlightAware
04:41AM 40.7730 13.2740 120° Southeast 522 601 37,000  Level FlightAware
04:41AM 40.7390 13.3520 120° Southeast 522 601 37,000  Level FlightAware
04:42AM 40.6950 13.4530 120° Southeast 520 598 37,000  Level FlightAware
04:42AM 40.6520 13.5510 120° Southeast 517 595 37,000  Level FlightAware
04:43AM 40.6140 13.6350 121° Southeast 515 593 37,000  Level FlightAware
04:43AM 40.5700 13.7350 120° Southeast 514 592 37,000  Level FlightAware
04:44AM 40.5280 13.8290 120° Southeast 512 589 37,000  Level FlightAware
04:45AM 40.4850 13.9260 120° Southeast 510 587 37,000  Level FlightAware
04:45AM 40.4460 14.0110 121° Southeast 509 586 37,000  Level FlightAware
04:46AM 40.4030 14.1090 120° Southeast 508 585 37,000  Level FlightAware
04:46AM 40.3600 14.2020 121° Southeast 507 583 37,000  Level FlightAware
04:47AM 40.3170 14.2970 121° Southeast 506 582 37,000  Level FlightAware
04:47AM 40.2780 14.3840 120° Southeast 506 582 37,000  Level FlightAware
04:48AM 40.2350 14.4790 121° Southeast 507 583 37,000  Level FlightAware
04:49AM 40.1920 14.5710 121° Southeast 509 586 37,000  Level FlightAware
04:49AM 40.1480 14.6690 120° Southeast 509 586 37,000  Level FlightAware
04:50AM 40.1090 14.7530 121° Southeast 510 587 37,000  Level FlightAware
04:50AM 40.0640 14.8510 121° Southeast 510 587 37,000  Level FlightAware
04:51AM 40.0210 14.9440 121° Southeast 510 587 37,000  Level FlightAware
04:52AM 39.9740 15.0460 121° Southeast 510 587 37,000  Level FlightAware
04:52AM 39.9340 15.1330 121° Southeast 509 586 37,000  Level FlightAware
04:53AM 39.8880 15.2300 122° Southeast 509 586 37,000  Level FlightAware
04:53AM 39.8450 15.3210 122° Southeast 510 587 37,000  Level FlightAware
04:54AM 39.8010 15.4160 121° Southeast 510 587 37,000  Level FlightAware
04:55AM 39.7560 15.5130 121° Southeast 512 589 37,000  Level FlightAware
04:55AM 39.7170 15.5940 122° Southeast 513 590 37,000  Level FlightAware
04:56AM 39.6690 15.6940 122° Southeast 515 593 37,000  Level FlightAware
04:56AM 39.6260 15.7860 121° Southeast 516 594 37,000  Level FlightAware
04:57AM 39.5790 15.8830 122° Southeast 518 596 37,000  Level FlightAware
04:58AM 39.5380 15.9680 122° Southeast 519 597 37,000  Level FlightAware
04:58AM 39.4930 16.0630 122° Southeast 520 598 37,000  Level FlightAware
04:59AM 39.4650 16.1430 114° Southeast 525 604 37,000  Level FlightAware
04:59AM 39.4340 16.2480 111° Southeast 524 603 37,000  Level FlightAware
05:00AM 39.4020 16.3560 111° Southeast 526 605 37,000  Level FlightAware
05:00AM 39.3730 16.4500 112° Southeast 526 605 37,000  Level FlightAware
05:01AM 39.3360 16.5600 113° Southeast 526 605 37,000  Level FlightAware
05:02AM 39.3060 16.6490 114° Southeast 524 603 37,000  Level FlightAware
05:02AM 39.2710 16.7550 113° Southeast 524 603 37,000  Level FlightAware
05:03AM 39.2360 16.8590 113° Southeast 526 605 37,000  Level FlightAware
05:03AM 39.2050 16.9510 113° Southeast 525 604 37,000  Level FlightAware
05:04AM 39.1710 17.0540 113° Southeast 525 604 37,000  Level FlightAware
05:04AM 39.1350 17.1600 114° Southeast 525 604 37,000  Level FlightAware
05:05AM 39.1050 17.2490 113° Southeast 524 603 37,000  Level FlightAware
05:06AM 39.0710 17.3560 112° Southeast 524 603 37,000  Level FlightAware
05:06AM 39.0360 17.4650 112° Southeast 522 601 37,000  Level FlightAware
05:07AM 39.0060 17.5560 113° Southeast 522 601 37,000  Level FlightAware
05:07AM 38.9720 17.6590 113° Southeast 521 600 37,000  Level FlightAware
05:08AM 38.9380 17.7610 113° Southeast 520 598 37,000  Level FlightAware
05:09AM 38.9040 17.8630 113° Southeast 517 595 37,000  Level FlightAware
05:09AM 38.8750 17.9510 113° Southeast 516 594 37,000  Level FlightAware
05:10AM 38.8400 18.0540 114° Southeast 515 593 37,000  Level FlightAware
05:10AM 38.8090 18.1470 113° Southeast 513 590 37,000  Level FlightAware
05:11AM 38.7880 18.2110 113° Southeast 513 590 37,000  Level FlightAware
05:11AM 38.7400 18.3530 113° Southeast 511 588 37,000  Level FlightAware
05:12AM 38.7050 18.4520 114° Southeast 510 587 37,000  Level FlightAware
05:13AM 38.6730 18.5490 113° Southeast 508 585 37,000  Level FlightAware
05:13AM 38.6400 18.6460 114° Southeast 508 585 37,000  Level FlightAware
05:14AM 38.6090 18.7360 114° Southeast 508 585 37,000  Level FlightAware
05:14AM 38.5760 18.8360 113° Southeast 509 586 37,000  Level FlightAware
05:15AM 38.5580 18.8980 110° East 508 585 37,000  Level FlightAware
05:16AM 38.5140 19.0470 111° Southeast 915 1053 37,000  Level FlightAware
05:17AM 38.4550 19.2460 111° Southeast 513 590 37,000  Level FlightAware
05:18AM 38.4230 19.3560 110° East 514 592 37,000  Level FlightAware
05:18AM 38.3870 19.4750 111° Southeast 514 592 37,000  Level FlightAware
05:19AM 38.3600 19.5620 112° Southeast 514 592 37,000  Level FlightAware
05:20AM 38.3230 19.6860 111° Southeast 513 590 37,000  Level FlightAware
05:20AM 38.2910 19.7940 111° Southeast 513 590 37,000  Level FlightAware
05:21AM 38.2630 19.8840 112° Southeast 513 590 37,000  Level FlightAware
05:21AM 38.2340 19.9790 111° Southeast 512 589 37,000  Level FlightAware
05:22AM 38.1930 20.1110 112° Southeast 512 589 37,000  Level FlightAware
05:23AM 38.1510 20.2480 111° Southeast 512 589 37,000  Level FlightAware
05:24AM 38.1050 20.3960 112° Southeast 511 588 37,000  Level FlightAware
05:24AM 38.0650 20.5240 112° Southeast 510 587 37,000  Level FlightAware
05:25AM 38.0380 20.6150 111° Southeast 510 587 37,000  Level FlightAware
05:26AM 38.0030 20.7220 113° Southeast 507 583 37,000  Level FlightAware
05:26AM 37.9770 20.8020 112° Southeast 507 583 37,000  Level FlightAware
05:27AM 37.9460 20.9050 111° Southeast 506 582 37,000  Level FlightAware
05:27AM 37.9090 21.0180 113° Southeast 509 586 37,000  Level FlightAware
05:28AM 37.8750 21.1260 112° Southeast 509 586 37,000  Level FlightAware
05:29AM 37.8420 21.2310 112° Southeast 511 588 37,000  Level FlightAware
05:29AM 37.8130 21.3170 113° Southeast 513 590 37,000  Level FlightAware
05:30AM 37.7800 21.4200 112° Southeast 515 593 37,000  Level FlightAware
05:30AM 37.7470 21.5230 112° Southeast 517 595 37,000  Level FlightAware
05:31AM 37.7210 21.6040 112° Southeast 518 596 37,000  Level FlightAware
05:32AM 37.6860 21.7140 112° Southeast 520 598 37,000  Level FlightAware
05:32AM 37.6590 21.7950 113° Southeast 521 600 37,000  Level FlightAware
05:33AM 37.6210 21.9100 113° Southeast 522 601 37,000  Level FlightAware
05:33AM 37.5860 22.0170 112° Southeast 523 602 37,000  Level FlightAware
05:34AM 37.5580 22.1020 113° Southeast 525 604 37,000  Level FlightAware
05:34AM 37.5230 22.2060 113° Southeast 525 604 37,000  Level FlightAware
05:35AM 37.4910 22.3050 112° Southeast 525 604 37,000  Level FlightAware
05:36AM 37.4560 22.4120 112° Southeast 526 605 37,000  Level FlightAware
05:36AM 37.4260 22.4990 113° Southeast 526 605 37,000  Level FlightAware
05:37AM 37.3900 22.6090 112° Southeast 526 605 37,000  Level FlightAware
05:37AM 37.3570 22.7070 113° Southeast 525 604 37,000  Level FlightAware
05:38AM 37.3260 22.7970 113° Southeast 524 603 37,000  Level FlightAware
05:39AM 37.2910 22.9010 113° Southeast 525 604 37,000  Level FlightAware
05:39AM 37.2610 22.9900 113° Southeast 524 603 37,000  Level FlightAware
05:40AM 37.2240 23.0960 114° Southeast 521 600 37,000  Level FlightAware
05:40AM 37.1930 23.1880 113° Southeast 520 598 37,000  Level FlightAware
05:41AM 37.1580 23.2900 113° Southeast 518 596 37,000  Level FlightAware
05:41AM 37.1250 23.3860 113° Southeast 518 596 37,000  Level FlightAware
05:42AM 37.0920 23.4800 114° Southeast 517 595 37,000  Level FlightAware
05:43AM 37.0590 23.5760 113° Southeast 516 594 37,000  Level FlightAware
05:43AM 37.0260 23.6720 113° Southeast 515 593 37,000  Level FlightAware
05:44AM 36.9930 23.7670 113° Southeast 514 592 37,000  Level FlightAware
05:44AM 36.9600 23.8600 114° Southeast 514 592 37,000  Level FlightAware
05:45AM 36.9250 23.9580 114° Southeast 514 592 37,000  Level FlightAware
05:46AM 36.8930 24.0500 113° Southeast 515 593 37,000  Level FlightAware
05:46AM 36.8610 24.1430 113° Southeast 515 593 37,000  Level FlightAware
05:47AM 36.8250 24.2440 114° Southeast 517 595 37,000  Level FlightAware
05:47AM 36.7900 24.3420 114° Southeast 517 595 37,000  Level FlightAware
05:48AM 36.7580 24.4290 115° Southeast 517 595 37,000  Level FlightAware
05:49AM 36.7150 24.5520 114° Southeast 517 595 37,000  Level FlightAware
05:49AM 36.6800 24.6470 115° Southeast 518 596 37,000  Level FlightAware
05:50AM 36.6490 24.7340 114° Southeast 518 596 37,000  Level FlightAware
05:50AM 36.6130 24.8320 115° Southeast 518 596 37,000  Level FlightAware
05:51AM 36.5780 24.9320 114° Southeast 517 595 37,000  Level FlightAware
05:52AM 36.5420 25.0270 115° Southeast 517 595 37,000  Level FlightAware
05:52AM 36.5110 25.1160 113° Southeast 516 594 37,000  Level FlightAware
05:53AM 36.4740 25.2160 115° Southeast 516 594 37,000  Level FlightAware
05:53AM 36.4410 25.3050 115° Southeast 516 594 37,000  Level FlightAware
05:54AM 36.4050 25.4050 114° Southeast 515 593 37,000  Level FlightAware
05:54AM 36.3680 25.5040 115° Southeast 513 590 37,000  Level FlightAware
05:55AM 36.3370 25.5890 114° Southeast 512 589 37,000  Level FlightAware
05:56AM 36.3010 25.6830 115° Southeast 511 588 37,000  Level FlightAware
05:56AM 36.2660 25.7790 114° Southeast 511 588 37,000  Level FlightAware
05:57AM 36.2340 25.8660 114° Southeast 513 590 37,000  Level FlightAware
05:57AM 36.1970 25.9620 116° Southeast 513 590 37,000  Level FlightAware
05:58AM 36.1620 26.0580 114° Southeast 512 589 37,000  Level FlightAware
05:59AM 36.1250 26.1540 115° Southeast 512 589 37,000  Level FlightAware
05:59AM 36.0940 26.2360 115° Southeast 512 589 37,000  Level FlightAware
06:00AM 36.0620 26.3210 115° Southeast 512 589 37,000  Level FlightAware
06:00AM 36.0210 26.4270 116° Southeast 512 589 37,000  Level FlightAware
06:01AM 35.9850 26.5220 115° Southeast 511 588 37,000  Level FlightAware
06:01AM 35.9500 26.6140 115° Southeast 510 587 37,000  Level FlightAware
06:02AM 35.9150 26.7060 115° Southeast 509 586 37,000  Level FlightAware
06:03AM 35.8660 26.8330 115° Southeast 508 585 37,000  Level FlightAware
06:04AM 35.8360 26.9130 115° Southeast 508 585 37,000  Level FlightAware
06:04AM 35.8050 26.9940 115° Southeast 508 585 37,000  Level FlightAware
06:05AM 35.7520 27.1270 116° Southeast 509 586 37,000  Level FlightAware
06:05AM 35.7160 27.2210 115° Southeast 509 586 37,000  Level FlightAware
06:06AM 35.6790 27.3130 116° Southeast 509 586 37,000  Level FlightAware
06:06AM 35.6420 27.4090 115° Southeast 509 586 37,000  Level FlightAware
06:07AM 35.6070 27.4980 116° Southeast 508 585 37,000  Level FlightAware
06:08AM 35.5750 27.5780 116° Southeast 508 585 37,000  Level FlightAware
06:08AM 35.5370 27.6740 116° Southeast 508 585 37,000  Level FlightAware
06:09AM 35.5010 27.7650 116° Southeast 509 586 37,000  Level FlightAware
06:09AM 35.4690 27.8460 116° Southeast 510 587 37,000  Level FlightAware
06:10AM 35.4310 27.9420 116° Southeast 510 587 37,000  Level FlightAware
06:11AM 35.3920 28.0380 116° Southeast 510 587 37,000  Level FlightAware
06:11AM 35.3550 28.1310 116° Southeast 509 586 37,000  Level FlightAware
06:12AM 35.3230 28.2110 116° Southeast 509 586 37,000  Level FlightAware
06:12AM 35.2860 28.3040 116° Southeast 508 585 37,000  Level FlightAware
06:13AM 35.2470 28.3970 117° Southeast 508 585 37,000  Level FlightAware
06:13AM 35.2130 28.4820 116° Southeast 508 585 37,000  Level FlightAware
06:14AM 35.1740 28.5800 116° Southeast 508 585 37,000  Level FlightAware
06:15AM 35.1390 28.6650 117° Southeast 508 585 37,000  Level FlightAware
06:15AM 35.1000 28.7600 117° Southeast 509 586 37,000  Level FlightAware
06:16AM 35.0620 28.8520 117° Southeast 509 586 37,000  Level FlightAware
06:16AM 35.0190 28.9580 116° Southeast 510 587 37,000  Level FlightAware
06:17AM 34.9850 29.0400 117° Southeast 510 587 37,000  Level FlightAware
06:18AM 34.9480 29.1300 117° Southeast 511 588 37,000  Level FlightAware
06:18AM 34.9050 29.2330 117° Southeast 511 588 37,000  Level FlightAware
06:19AM 34.8580 29.3460 117° Southeast 509 586 37,000  Level FlightAware
06:20AM 34.8220 29.4340 116° Southeast 514 592 37,000  Level FlightAware
06:20AM 34.7800 29.5340 117° Southeast 514 592 37,000  Level FlightAware
06:21AM 34.7410 29.6250 118° Southeast 512 589 37,000  Level FlightAware
06:21AM 34.6990 29.7250 117° Southeast 512 589 37,000  Level FlightAware
06:22AM 34.6600 29.8180 117° Southeast 513 590 37,000  Level FlightAware
06:23AM 34.6190 29.9190 116° Southeast 513 590 37,000  Level FlightAware
06:23AM 34.5870 29.9980 116° Southeast 513 590 37,000  Level FlightAware
06:24AM 34.5400 30.0920 121° Southeast 515 593 37,000  Level FlightAware
06:24AM 34.4970 30.1810 120° Southeast 511 588 37,000  Level FlightAware
06:25AM 34.4510 30.2730 121° Southeast 515 593 37,000  Level FlightAware
06:26AM 34.4140 30.3480 121° Southeast 516 594 37,000  Level FlightAware
06:26AM 34.3640 30.4530 120° Southeast 518 596 37,000  Level FlightAware
06:27AM 34.3220 30.5400 120° Southeast 518 596 37,000 -600 Level FlightAware
06:27AM 34.2790 30.6280 121° Southeast 517 595 36,300 -1,140 Descending FlightAware
06:28AM 34.2360 30.7170 120° Southeast 515 593 35,700 -1,020 Descending FlightAware
06:29AM 34.1930 30.8040 121° Southeast 511 588 35,100 -1,500 Descending FlightAware
06:29AM 34.1580 30.8770 120° Southeast 511 588 34,100 -1,740 Descending FlightAware
06:30AM 34.1150 30.9630 121° Southeast 511 588 33,100 -960 Descending FlightAware
06:30AM 34.0720 31.0520 120° Southeast 513 590 33,000 -120 Descending FlightAware
06:31AM 34.0220 31.1520 121° Southeast 512 589 33,000  Level FlightAware
06:31AM 33.9880 31.2210 121° Southeast 512 589 33,000  Level FlightAware
06:32AM 33.9440 31.3090 121° Southeast 513 590 33,000  Level FlightAware
06:33AM 33.8960 31.4070 121° Southeast 508 585 33,000  Level FlightAware
06:33AM 33.8530 31.4930 121° Southeast 508 585 33,000  Level FlightAware
06:34AM 33.8180 31.5630 121° Southeast 508 585 33,000  Level FlightAware
06:34AM 33.7680 31.6630 121° Southeast 508 585 33,000  Level FlightAware
06:35AM 33.7250 31.7460 122° Southeast 509 586 33,000  Level FlightAware
06:36AM 33.6830 31.8320 120° Southeast 510 587 33,000  Level FlightAware
06:36AM 33.6440 31.9080 122° Southeast 511 588 33,000  Level FlightAware
06:37AM 33.6020 31.9930 121° Southeast 511 588 33,000  Level FlightAware
06:37AM 33.5560 32.0810 122° Southeast 512 589 33,000  Level FlightAware
06:38AM 33.5060 32.1790 121° Southeast 513 590 33,000  Level FlightAware
06:38AM 33.4700 32.2500 121° Southeast 514 592 33,000  Level FlightAware
06:39AM 33.4250 32.3380 121° Southeast 514 592 33,000  Level FlightAware
06:40AM 33.3810 32.4240 121° Southeast 514 592 33,000 -120 Level FlightAware
06:40AM 33.3360 32.5120 121° Southeast 513 590 32,900 -540 Descending FlightAware
06:41AM 33.2930 32.5970 121° Southeast 506 582 32,400 -1,140 Descending FlightAware
06:41AM 33.2500 32.6800 122° Southeast 502 578 31,600 -1,260 Descending FlightAware
06:42AM 33.2090 32.7600 121° Southeast 498 573 31,000 -540 Descending FlightAware
06:43AM 33.1590 32.8570 122° Southeast 506 582 31,000  Level FlightAware
06:43AM 33.1200 32.9310 122° Southeast 508 585 31,000 -480 Level FlightAware
06:44AM 33.0610 33.0460 121° Southeast 506 582 30,400 -1,020 Descending FlightAware
06:45AM 33.0170 33.1340 121° Southeast 501 577 29,600 -1,560 Descending FlightAware
06:45AM 32.9660 33.2310 122° Southeast 489 563 28,400 -1,800 Descending FlightAware
06:46AM 32.9270 33.3110 120° Southeast 476 548 27,300 -2,340 Descending FlightAware
06:46AM 32.8880 33.3860 122° Southeast 464 534 25,800 -2,580 Descending FlightAware
06:47AM 32.8500 33.4590 122° Southeast 454 522 24,400 -2,580 Descending FlightAware
06:48AM 32.8110 33.5350 121° Southeast 445 512 22,800 -2,940 Descending FlightAware
06:48AM 32.7720 33.6090 122° Southeast 453 521 20,900 -2,880 Descending FlightAware
06:49AM 32.7330 33.6850 121° Southeast 448 516 19,500 -2,400 Descending FlightAware
06:49AM 32.6960 33.7550 122° Southeast 441 507 18,200 -2,220 Descending FlightAware
06:50AM 32.6560 33.8330 121° Southeast 434 499 16,900 -2,040 Descending FlightAware
06:51AM 32.6200 33.9010 122° Southeast 428 493 15,700 -2,040 Descending FlightAware
06:51AM 32.5860 33.9670 121° Southeast 422 486 14,600 -1,980 Descending FlightAware
06:52AM 32.5490 34.0390 121° Southeast 414 476 13,500 -2,040 Descending FlightAware
06:52AM 32.5130 34.1050 123° Southeast 403 464 12,200 -1,860 Descending FlightAware
06:53AM 32.4760 34.1700 124° Southeast 377 434 11,300 -1,440 Descending FlightAware
06:53AM 32.4390 34.2150 134° Southeast 353 406 10,600 -1,260 Descending FlightAware
06:54AM 32.3990 34.2630 135° Southeast 314 361 9,900 -1,080 Descending FlightAware
06:54AM 32.3790 34.2850 137° Southeast 299 344 9,600 -1,020 Descending FlightAware
06:55AM 32.3640 34.3030 135° Southeast 289 333 9,300 -1,080 Descending FlightAware
06:55AM 32.3470 34.3230 135° Southeast 287 330 9,000 -1,080 Descending FlightAware
06:55AM 32.3290 34.3450 134° Southeast 283 326 8,600 -1,260 Descending FlightAware
06:56AM 32.3060 34.3710 136° Southeast 278 320 8,100 -1,260 Descending FlightAware
06:56AM 32.2880 34.3910 137° Southeast 276 318 7,700 -1,380 Descending FlightAware
06:56AM 32.2710 34.4120 134° Southeast 274 315 7,200 -1,380 Descending FlightAware
06:57AM 32.2560 34.4300 135° Southeast 273 314 6,900 -1,200 Descending FlightAware
06:57AM 32.2390 34.4500 135° Southeast 272 313 6,500 -1,200 Descending FlightAware
06:57AM 32.2310 34.4600 133° Southeast 270 311 6,300 -1,200 Descending FlightAware
06:58AM 32.2140 34.4910 123° Southeast 267 307 5,800 -660 Descending FlightAware
06:58AM 32.1970 34.5240 121° Southeast 266 306 5,700 -780 Descending FlightAware
06:59AM 32.1720 34.5730 121° Southeast 260 299 4,900 -660 Descending FlightAware
06:59AM 32.1490 34.6160 122° Southeast 259 298 5,000 120 Climbing FlightAware
07:00AM 32.1360 34.6400 123° Southeast 259 298 5,000  Level FlightAware
07:00AM 32.1240 34.6620 123° Southeast 260 299 5,000  Level FlightAware
07:00AM 32.1050 34.6960 123° Southeast 260 299 5,000  Level FlightAware
07:01AM 32.1060 34.6940 301° West 241 277 5,000  Level FlightAware
07:02AM 32.1190 34.6700 303° West 213 245 5,000 -180 Level FlightAware
07:02AM 32.0510 34.7860 125° Southeast 211 243 4,900 -240 Descending FlightAware
07:02AM 32.0280 34.8120 136° Southeast 213 245 4,800 -540 Descending FlightAware
07:03AM 32.0440 34.7940 316° Northwest 215 247 4,500 -900 Descending FlightAware
07:03AM 32.0010 34.8420 137° Southeast 207 238 4,300 -900 Descending FlightAware
07:03AM 31.9870 34.8590 134° Southeast 204 235 3,900 -540 Descending FlightAware
07:04AM 31.9720 34.8760 136° Southeast 204 235 3,900 -1,560 Level FlightAware
07:04AM 31.9870 34.8590 316° Northwest 204 235 3,100 -3,900 Descending FlightAware
07:04AM 31.9730 34.8950 115° Southeast 199 229 3,000 -900 Descending FlightAware
07:04AM 31.9790 34.9210 75° East 200 230 2,600 -1,080 Descending FlightAware
07:05AM 31.9840 34.9440 76° East 199 229 2,200 -1,200 Descending FlightAware
07:05AM 31.9940 34.9600 54° Northeast 177 204 1,800 -1,080 Descending FlightAware
07:05AM 32.0060 34.9630 12° North 169 194 1,600 -900 Descending FlightAware
07:06AM 32.0180 34.9610 352° North 147 169 1,300 -840 Descending FlightAware
07:06AM 32.0220 34.9580 328° Northwest 144 166 1,200 -720 Descending FlightAware
07:06AM 32.0260 34.9480 295° West 142 163 1,000 -900 Descending FlightAware
07:06AM 32.0230 34.9310 258° West 147 169 700 -780 Descending FlightAware
07:07AM 32.0210 34.9140 262° West 146 168 500 -300 Descending FlightAware
07:07AM 32.0180 34.8960 259° West 146 168 500  Level FlightAware
07:10AM 32.0095 34.8769 125° Southeast  Level Estimated
07:11AM 32.0095 34.8769 125° Southeast  Level Estimated